Colby, KS

2:14 AM CST on December 29, 2014 (GMT -0600)
145 E Cherry - K0FJ | Change Station
CLOSE
Current Station
Personal Weather Station
Location: Colby, KS
Elevation: 3150 ft
Nearby Weather Stations
Active Advisory: Special Statement

Elev 3150 ft 39.39 °N, 101.05 °W | Updated 3 minutes ago

Light Freezing Fog
Freezing Fog
10.0 °F
Feels Like 10 °F
N
1.0
Wind Variable Wind from South
Gusts 1.0 mph

Today
High -- | Low -- °F
--% Chance of Precip.
Yesterday
High -- | Low -- °F
Precip. -- in
8:03 AM 5:29 PM
First Quarter, 56% visible
Pressure 30.03 in
Visibility 0.2 miles
Clouds Overcast 200 ft
Windchill 10 °F
Dew Point 7 °F
Humidity 87%
Rainfall 0.00 in
Snow Depth Not available.
UV 0 out of 12
Pollen .10 out of 12
Air Quality Not available.
Flu Activity Not available.
METAR KCBK 290755Z AUTO 36003KT 1/4SM FZFG OVC002 M09/M09 A3003 RMK AO2

More Conditions Fewer Conditions

Pressure 30.03 in
Visibility 0.2 miles
Clouds Overcast 200 ft
Windchill 10 °F
Dew Point 7 °F
Humidity 87%
Rainfall 0.00 in
Snow Depth Not available.
UV 0 out of 12
Pollen .10 out of 12
Air Quality Not available.
Flu Activity Not available.
METAR KCBK 290755Z AUTO 36003KT 1/4SM FZFG OVC002 M09/M09 A3003 RMK AO2

More Conditions Fewer Conditions

Nowcast | as of 12:08 am MST on December 29, 2014

Areas of fog will limit visibilities to less than one mile through the early morning. Drivers should use extra caution early this morning...especially if driving on Interstate 70 between Colby Kansas and Stratton Colorado. Use low beam headlights when you encounter fog.

×

10-Day Weather Forecast

Almanac

Astronomy

Dec. 29, 2014 Rise Set
Actual Time
Civil Twilight
Nautical Twilight
Astronomical Twilight
Moon
Length of Visible Light
Length of Day
Tomorrow will be .
, % of the Moon is Illuminated

Today's Extremes

State Highs State Lows

Community

WunderPhotos

Upload Photos

1,781,553 photos uploaded!

WunderBlogs® & News

Nearby

Air Quality

  Air Quality AQ Index Pollutant
Not available.

Snow Depth

Station Depth Elevation

Earthquake Activity

City Distance Mag. Time & Date
Minimum magnitude displayed is 2.5.

Coastal Water Temperatures

Place Temperature

Nearby Weather Stations